createdAt,value
2018-06-14T10:23:36.630Z,95.3
2018-06-14T10:24:36.533Z,94.8
2018-06-14T10:25:36.571Z,94.8
2018-06-14T10:26:36.469Z,94.5
2018-06-14T10:27:36.334Z,95.2
2018-06-14T10:28:37.197Z,94.4
2018-06-14T10:29:40.295Z,96.3
2018-06-14T10:30:40.171Z,95.6
2018-06-14T10:31:40.114Z,94.2
2018-06-14T10:32:39.985Z,94.5
2018-06-14T10:42:15.360Z,94.2
2018-06-14T10:43:15.363Z,92.9
2018-06-14T10:44:15.242Z,92.9
2018-06-14T10:45:15.145Z,93.4
2018-06-14T10:46:15.030Z,93
2018-06-14T10:47:14.937Z,93.1
2018-06-14T10:48:14.828Z,93.1
2018-06-14T10:49:14.701Z,93.1
2018-06-14T10:50:14.588Z,93.5
2018-06-14T10:51:14.467Z,93.5
2018-06-14T10:52:14.778Z,92.2
2018-06-14T10:53:14.674Z,92.5
2018-06-14T10:54:14.533Z,91.4
2018-06-14T10:55:14.399Z,92
2018-06-14T10:56:14.281Z,92.3
2018-06-14T10:57:14.155Z,91.2
2018-06-14T10:58:14.069Z,91.7
2018-06-14T10:59:14.857Z,91.7
2018-06-14T11:00:14.740Z,90.7
2018-06-14T11:01:14.620Z,90.4
2018-06-14T11:02:15.537Z,90.2
2018-06-14T11:03:15.429Z,90.8
2018-06-14T11:04:15.307Z,90.6
2018-06-14T11:05:15.197Z,89.8
2018-06-14T11:06:15.083Z,90.1
2018-06-14T11:07:14.954Z,90.3
2018-06-14T11:08:14.864Z,90.5
2018-06-14T11:09:14.760Z,90.8
2018-06-14T11:10:14.644Z,90.8
2018-06-14T11:11:14.528Z,89.6
2018-06-14T11:12:14.861Z,89.2
2018-06-14T11:13:14.989Z,90
2018-06-14T11:14:15.034Z,88.6
2018-06-14T11:15:15.214Z,87.7
2018-06-14T11:16:15.095Z,86.3
2018-06-14T11:17:14.988Z,88.1
2018-06-14T11:18:14.921Z,86.2
2018-06-14T11:19:14.809Z,85.9
2018-06-14T11:20:14.880Z,87
2018-06-14T11:21:14.903Z,87.8
2018-06-14T11:22:15.210Z,89.1
2018-06-14T11:23:15.101Z,90.1
2018-06-14T11:24:15.086Z,90.3
2018-06-14T11:25:14.954Z,90.1
2018-06-14T11:26:14.820Z,86.7
2018-06-14T11:27:14.712Z,85.7
2018-06-14T11:28:14.602Z,86.5
2018-06-14T11:29:14.490Z,87.9
2018-06-14T11:30:14.367Z,88.7
2018-06-14T11:31:14.260Z,89.5
2018-06-14T11:32:14.606Z,89.5
2018-06-14T11:33:14.527Z,87.9
2018-06-14T11:34:14.453Z,89.1
2018-06-14T11:35:14.336Z,89.7
2018-06-14T11:36:14.232Z,88.3
2018-06-14T11:37:14.111Z,86.6
2018-06-14T11:38:13.979Z,89.2
2018-06-14T11:39:13.862Z,86.1
2018-06-14T11:40:13.785Z,86.3
2018-06-14T11:41:13.663Z,86.6
2018-06-14T11:42:13.960Z,86.7
2018-06-14T11:43:13.876Z,88.6
2018-06-14T11:44:13.770Z,88.1
2018-06-14T11:45:13.664Z,85.2
2018-06-14T11:46:13.525Z,84.7
2018-06-14T11:47:13.423Z,85.8
2018-06-14T11:48:13.357Z,87
2018-06-14T11:49:13.380Z,86.1
2018-06-14T11:50:13.285Z,84.5
2018-06-14T11:51:13.174Z,84.8
2018-06-14T11:52:13.461Z,86.4
2018-06-14T11:53:13.346Z,87.7
2018-06-14T11:54:13.420Z,87.2
2018-06-14T11:55:13.447Z,86.9
2018-06-14T11:56:13.347Z,87.8
2018-06-14T11:57:13.224Z,87.8
2018-06-14T11:58:13.104Z,86.7
2018-06-14T11:59:12.992Z,85.4
2018-06-14T12:00:12.885Z,86.8
2018-06-14T12:01:12.914Z,88.7
2018-06-14T12:02:13.543Z,87.2
2018-06-14T12:03:13.441Z,88.6
2018-06-14T12:04:13.325Z,88.5
2018-06-14T12:05:13.216Z,87.2
2018-06-14T12:06:13.114Z,85.6
2018-06-14T12:07:12.988Z,85.3
2018-06-14T12:08:12.862Z,85.6
2018-06-14T12:09:12.968Z,87.5
2018-06-14T12:10:12.897Z,87.4
2018-06-14T12:11:12.811Z,84.8
2018-06-14T12:12:13.100Z,86
2018-06-14T12:13:12.973Z,86.4
2018-06-14T12:14:12.854Z,86.7
2018-06-14T12:15:13.052Z,86
2018-06-14T12:16:13.311Z,85.3
2018-06-14T12:17:13.174Z,85.6
2018-06-14T12:18:13.056Z,86
2018-06-14T12:19:12.933Z,86.2
2018-06-14T12:20:12.815Z,85.9
2018-06-14T12:21:12.717Z,85.4
2018-06-14T12:22:13.045Z,86.5
2018-06-14T12:23:12.942Z,85.6
2018-06-14T12:24:12.829Z,85.5
2018-06-14T12:25:12.732Z,85.7
2018-06-14T12:26:12.867Z,85.6
2018-06-14T12:27:12.742Z,83.9
2018-06-14T12:28:12.672Z,83.4
2018-06-14T12:29:12.556Z,83.6
2018-06-14T12:30:12.443Z,84.7
2018-06-14T12:31:12.339Z,84.6
2018-06-14T12:32:12.852Z,84.4
2018-06-14T12:33:12.784Z,85.1
2018-06-14T12:34:12.697Z,85.4
2018-06-14T12:35:12.581Z,84.5
2018-06-14T12:36:12.500Z,86.2
2018-06-14T12:37:12.375Z,85.3
2018-06-14T12:38:12.276Z,84.2
2018-06-14T12:39:12.186Z,85.1
2018-06-14T12:40:12.090Z,86.4
2018-06-14T12:41:11.977Z,86.6
2018-06-14T12:42:12.295Z,86.8
2018-06-14T12:43:12.172Z,85.2
2018-06-14T12:44:12.321Z,85
2018-06-14T12:45:12.346Z,83.6
2018-06-14T12:46:12.213Z,83.9
2018-06-14T12:47:12.115Z,83.7
2018-06-14T12:48:12.219Z,82.7
2018-06-14T12:49:12.096Z,83.5
2018-06-14T12:50:11.974Z,85
2018-06-14T12:51:11.868Z,84.5
2018-06-14T12:52:12.191Z,84
2018-06-14T12:53:12.100Z,84.7
2018-06-14T12:54:11.981Z,85
2018-06-14T12:55:11.878Z,86.1
2018-06-14T12:56:11.783Z,86.1
2018-06-14T12:57:11.696Z,85.7
2018-06-14T12:58:11.569Z,85
2018-06-14T12:59:11.442Z,85.1
2018-06-14T13:00:11.987Z,84.1
2018-06-14T13:01:11.876Z,85.6
2018-06-14T13:02:12.201Z,85.8
2018-06-14T13:03:12.105Z,86.2
2018-06-14T13:04:12.411Z,86
2018-06-14T13:05:12.538Z,86.3
2018-06-14T13:06:12.442Z,85.1
2018-06-14T13:07:12.311Z,85.7
2018-06-14T13:08:12.221Z,86.1
2018-06-14T13:09:12.108Z,86.4
2018-06-14T13:10:12.004Z,86.5
2018-06-14T13:11:12.118Z,86.2
2018-06-14T13:12:12.702Z,86.7
2018-06-14T13:13:12.616Z,87.5
2018-06-14T13:14:12.555Z,87.6
2018-06-14T13:15:12.443Z,86.3
2018-06-14T13:16:12.332Z,86.5
2018-06-14T13:17:12.225Z,87.3
2018-06-14T13:18:12.118Z,86.8
2018-06-14T13:19:12.002Z,86.2
2018-06-14T13:20:12.099Z,86.4
2018-06-14T13:21:11.992Z,86.8
2018-06-14T13:22:12.291Z,87
2018-06-14T13:23:12.203Z,88.2
2018-06-14T13:24:12.595Z,87.4
2018-06-14T13:25:12.585Z,87.1
2018-06-14T13:26:12.460Z,86.1
2018-06-14T13:27:12.348Z,85.9
2018-06-14T13:28:12.213Z,87
2018-06-14T13:29:12.142Z,87.1
2018-06-14T13:30:12.043Z,87.3
2018-06-14T13:31:11.915Z,86.7
2018-06-14T13:32:12.274Z,85.1
2018-06-14T13:33:12.157Z,85.1
2018-06-14T13:34:12.067Z,84.6
2018-06-14T13:35:12.217Z,85.8
2018-06-14T13:36:12.101Z,87
2018-06-14T13:37:11.972Z,87.3
2018-06-14T13:38:11.846Z,86.7
2018-06-14T13:39:11.766Z,86.8
2018-06-14T13:40:11.645Z,87
2018-06-14T13:41:11.525Z,87.9
2018-06-14T13:42:12.021Z,89.6
2018-06-14T13:43:11.909Z,89
2018-06-14T13:44:11.795Z,88.3
2018-06-14T13:45:12.347Z,87.6
2018-06-14T13:46:12.290Z,87.8
2018-06-14T13:47:12.169Z,87
2018-06-14T13:48:12.067Z,87.8
2018-06-14T13:49:12.785Z,88.1
2018-06-14T13:50:13.182Z,87.4
2018-06-14T13:51:13.080Z,85.2
2018-06-14T13:52:13.355Z,85.4
2018-06-14T13:53:13.241Z,85.1
2018-06-14T13:54:13.133Z,85.7
2018-06-14T13:55:13.043Z,87.2
2018-06-14T13:56:12.920Z,87.5
2018-06-14T13:57:12.801Z,86.6
2018-06-14T13:58:12.701Z,86.1
2018-06-14T13:59:12.574Z,85.5
2018-06-14T14:00:12.487Z,85.5
2018-06-14T14:01:13.609Z,86.4
2018-06-14T14:02:14.497Z,86.4
2018-06-14T14:03:14.377Z,85.7
2018-06-14T14:04:14.265Z,86.6
2018-06-14T14:05:14.158Z,87.2
2018-06-14T14:06:14.018Z,87.1
2018-06-14T14:07:13.910Z,86
2018-06-14T14:08:13.792Z,85
2018-06-14T14:09:13.684Z,85.1
2018-06-14T14:10:13.619Z,85.3
2018-06-14T14:11:13.506Z,85.5
2018-06-14T14:12:13.802Z,85.3
2018-06-14T14:13:13.688Z,85.3
2018-06-14T14:14:13.598Z,84.8
2018-06-14T14:15:13.473Z,83.7
2018-06-14T14:16:13.354Z,83.8
2018-06-14T14:17:13.241Z,84.3
2018-06-14T14:18:13.118Z,85.3
2018-06-14T14:19:13.003Z,85.5
2018-06-14T14:20:12.887Z,85
2018-06-14T14:21:12.803Z,85.4
2018-06-14T14:22:13.070Z,85.5
2018-06-14T14:23:12.942Z,86
2018-06-14T14:24:12.840Z,85.9
2018-06-14T14:25:12.716Z,85.1
2018-06-14T14:26:12.646Z,85.8
2018-06-14T14:27:12.519Z,85.5
2018-06-14T14:28:12.383Z,85.4
2018-06-14T14:29:12.267Z,85.7
2018-06-14T14:30:12.153Z,86.3
2018-06-14T14:31:12.031Z,85.8
2018-06-14T14:32:12.337Z,84.1
2018-06-14T14:33:12.226Z,84.6
2018-06-14T14:34:12.103Z,85.3
2018-06-14T14:35:12.019Z,85.3
2018-06-14T14:36:13.475Z,86.2
2018-06-14T14:37:13.751Z,86.6
2018-06-14T14:38:13.630Z,87.1
2018-06-14T14:39:13.497Z,87.1
2018-06-14T14:40:13.379Z,87.5
2018-06-14T14:41:13.241Z,86
2018-06-14T14:42:13.537Z,85
2018-06-14T14:43:13.420Z,84.8
2018-06-14T14:44:13.304Z,85.8
2018-06-14T14:45:13.182Z,85.6
2018-06-14T14:46:13.114Z,86.1
2018-06-14T14:47:13.031Z,85.3
2018-06-14T14:48:12.905Z,85
2018-06-14T14:49:12.794Z,84.7
2018-06-14T14:50:12.679Z,84.4
2018-06-14T14:51:12.557Z,86.7
2018-06-14T14:52:12.865Z,85.9
2018-06-14T14:53:13.246Z,84.4
2018-06-14T14:54:13.647Z,84.7
2018-06-14T14:55:13.516Z,84.3
2018-06-14T14:56:13.398Z,84.4
2018-06-14T14:57:13.270Z,85.5
2018-06-14T14:58:13.183Z,85.5
2018-06-14T14:59:13.061Z,85.6
2018-06-14T15:00:12.933Z,86.5
2018-06-14T15:01:12.809Z,87.1
2018-06-14T15:02:13.112Z,86.7
2018-06-14T15:03:13.022Z,86.9
2018-06-14T15:04:15.697Z,86.3
2018-06-14T15:05:15.574Z,85.7
2018-06-14T15:06:15.467Z,84.6
2018-06-14T15:07:15.362Z,85.4
2018-06-14T15:08:15.277Z,85.2
2018-06-14T15:09:15.135Z,85.6
2018-06-14T15:10:15.006Z,84.7
2018-06-14T15:11:14.880Z,84.3
2018-06-14T15:12:15.197Z,83.6
2018-06-14T15:13:15.100Z,82.4
2018-06-14T15:14:15.336Z,81.8
2018-06-14T15:15:15.403Z,81.9
2018-06-14T15:16:15.290Z,82.9
2018-06-14T15:17:15.167Z,82.8
2018-06-14T15:18:15.279Z,83.4
2018-06-14T15:19:15.162Z,82.5
2018-06-14T15:20:15.048Z,83.4
2018-06-14T15:21:14.926Z,84.5
2018-06-14T15:22:15.204Z,84.6
2018-06-14T15:23:15.082Z,84.8
2018-06-14T15:24:14.990Z,82.9
2018-06-14T15:25:14.877Z,82.8
2018-06-14T15:26:14.756Z,82.5
2018-06-14T15:27:14.634Z,83.4
2018-06-14T15:28:14.513Z,85
2018-06-14T15:29:14.477Z,83.8
2018-06-14T15:30:14.369Z,82.6
2018-06-14T15:31:14.249Z,83.1
2018-06-14T15:32:14.547Z,82.4
2018-06-14T15:33:14.464Z,81.9
2018-06-14T15:34:14.370Z,81.6
2018-06-14T15:35:14.233Z,82.3
2018-06-14T15:36:14.110Z,83.4
2018-06-14T15:37:14.331Z,83.5
2018-06-14T15:38:14.402Z,82.5
2018-06-14T15:39:14.289Z,83.7
2018-06-14T15:40:14.195Z,83.7
2018-06-14T15:41:14.056Z,83.1
2018-06-14T15:42:14.347Z,82.5
2018-06-14T15:43:14.235Z,83.1
2018-06-14T15:44:14.110Z,82.2
2018-06-14T15:45:13.987Z,80.6
2018-06-14T15:46:13.861Z,80.8
2018-06-14T15:47:13.745Z,79.5
2018-06-14T15:48:13.631Z,80.5
2018-06-14T15:49:13.507Z,81
2018-06-14T15:50:13.390Z,81.2
2018-06-14T15:51:13.247Z,81.2
2018-06-14T15:52:13.537Z,81.4
2018-06-14T15:53:13.405Z,81.8
2018-06-14T15:54:13.376Z,82.8
2018-06-14T15:55:13.323Z,82.7
2018-06-14T15:56:13.207Z,82.8
2018-06-14T15:57:13.086Z,82.9
2018-06-14T15:58:12.959Z,82.6
2018-06-14T15:59:12.852Z,82.9
2018-06-14T16:00:12.764Z,83.1
2018-06-14T16:01:12.655Z,82.8
2018-06-14T16:02:12.947Z,83.8
2018-06-14T16:03:12.825Z,84.3
2018-06-14T16:04:12.802Z,84.9
2018-06-14T16:05:12.776Z,85.3
2018-06-14T16:06:12.685Z,85.3
2018-06-14T16:07:12.555Z,85.3
2018-06-14T16:08:13.123Z,84.5
2018-06-14T16:09:13.006Z,84.4
2018-06-14T16:10:12.895Z,84.4
2018-06-14T16:11:12.796Z,84.4
2018-06-14T16:12:13.085Z,84.4
2018-06-14T16:13:12.962Z,83.9
2018-06-14T16:14:12.846Z,84.3
2018-06-14T16:15:12.698Z,85
2018-06-14T16:16:12.593Z,84.4
2018-06-14T16:17:12.489Z,85
2018-06-14T16:18:12.361Z,85.4
2018-06-14T16:19:12.251Z,83.6
2018-06-14T16:20:12.124Z,83.6
2018-06-14T16:21:12.239Z,83.2
2018-06-14T16:22:12.735Z,84.3
2018-06-14T16:23:12.586Z,84.2
2018-06-14T16:24:13.490Z,84.3
2018-06-14T16:25:13.366Z,84.4
2018-06-14T16:26:13.304Z,84.2
2018-06-14T16:27:13.217Z,84.3
2018-06-14T16:28:13.100Z,83.8
2018-06-14T16:29:12.991Z,84.5
2018-06-14T16:30:12.862Z,84.9
2018-06-14T16:31:12.739Z,84
2018-06-14T16:32:13.070Z,84.3
2018-06-14T16:33:12.957Z,84.6
2018-06-14T16:34:13.165Z,85
2018-06-14T16:35:13.134Z,84.3
2018-06-14T16:36:13.011Z,84.4
2018-06-14T16:37:12.937Z,84.5
2018-06-14T16:38:12.852Z,84.6
2018-06-14T16:39:12.727Z,84.5
2018-06-14T16:40:12.853Z,85.2
2018-06-14T16:41:12.796Z,85.6
2018-06-14T16:42:13.100Z,85
2018-06-14T16:43:13.231Z,85.7
2018-06-14T16:44:13.334Z,85.2
2018-06-14T16:45:13.213Z,84.9
2018-06-14T16:46:13.110Z,84.5
2018-06-14T16:47:13.045Z,84.2
2018-06-14T16:48:13.270Z,83.7
2018-06-14T16:49:13.242Z,83.1
2018-06-14T16:50:13.344Z,83.7
2018-06-14T16:51:13.308Z,84.3
2018-06-14T16:52:16.932Z,84.6
2018-06-14T16:53:17.078Z,83.8
2018-06-14T16:54:16.941Z,84.2
2018-06-14T16:55:19.533Z,84.5
2018-06-14T16:56:19.394Z,83.7
2018-06-14T16:57:19.299Z,84.3
2018-06-14T16:58:19.231Z,83.9
2018-06-14T16:59:22.309Z,83.6
2018-06-14T17:00:22.330Z,83.5
2018-06-14T17:01:22.232Z,84.2
2018-06-14T17:02:22.514Z,83.6
2018-06-14T17:03:23.515Z,83.9
2018-06-14T17:04:23.401Z,84.2
2018-06-14T17:05:23.467Z,83.6
2018-06-14T17:06:23.682Z,83.3
2018-06-14T17:07:23.659Z,83.7
2018-06-14T17:08:23.529Z,84
2018-06-14T17:09:23.960Z,84.1
2018-06-14T17:10:24.139Z,84.1
2018-06-14T17:11:24.141Z,84.2
2018-06-14T17:12:24.441Z,83.8
2018-06-14T17:13:24.446Z,84
2018-06-14T17:14:24.468Z,84.1
2018-06-14T17:15:24.472Z,83.6
2018-06-14T17:16:24.768Z,84.2
2018-06-14T17:17:27.794Z,84.3
2018-06-14T17:18:28.064Z,84.3
2018-06-14T17:19:28.132Z,84.2
2018-06-14T17:20:28.015Z,84.6
2018-06-14T17:21:27.883Z,84.7
2018-06-14T17:22:28.219Z,85
2018-06-14T17:23:28.121Z,84.9
2018-06-14T17:24:28.000Z,85.2
2018-06-14T17:25:27.899Z,84.9
2018-06-14T17:26:27.794Z,84.5
2018-06-14T17:27:27.664Z,84.6
2018-06-14T17:28:28.191Z,84.8
2018-06-14T17:29:28.293Z,85.6
2018-06-14T17:30:28.213Z,85.9
2018-06-14T17:31:28.105Z,84.9
2018-06-14T17:32:29.152Z,85.5
2018-06-14T17:33:29.023Z,85.7
2018-06-14T17:34:28.889Z,85
2018-06-14T17:35:28.800Z,85.3
2018-06-14T17:36:29.687Z,85.8
2018-06-14T17:37:29.566Z,85.8
2018-06-14T17:38:29.460Z,85.6
2018-06-14T17:39:29.347Z,85.9
2018-06-14T17:40:29.465Z,84.5
2018-06-14T17:41:29.989Z,84.4
2018-06-14T17:42:30.846Z,84.6
2018-06-14T17:43:30.749Z,85.3
2018-06-14T17:44:30.647Z,85.5
2018-06-14T17:45:30.551Z,86
2018-06-14T17:46:30.453Z,85.7
2018-06-14T17:47:30.341Z,84.6
2018-06-14T17:48:30.258Z,84.6
2018-06-14T17:49:30.189Z,84.6
2018-06-14T17:50:30.077Z,84.5
2018-06-14T17:51:30.002Z,84
2018-06-14T17:52:30.315Z,84.1
2018-06-14T17:53:30.480Z,83.5
2018-06-14T17:54:30.577Z,83.7
2018-06-14T17:55:30.454Z,84.6
2018-06-14T17:56:30.356Z,85.2
2018-06-14T17:57:30.246Z,85
2018-06-14T17:58:30.134Z,85.4
2018-06-14T17:59:30.041Z,84.9
2018-06-14T18:00:30.094Z,84.9
2018-06-14T18:01:30.186Z,85.2
2018-06-14T18:02:30.663Z,85.6
2018-06-14T18:03:31.007Z,85.9
2018-06-14T18:04:30.899Z,85.9
2018-06-14T18:05:30.798Z,86
2018-06-14T18:06:31.114Z,86.3
2018-06-14T18:07:31.311Z,86.5
2018-06-14T18:08:31.210Z,86.4
2018-06-14T18:09:31.096Z,86
2018-06-14T18:10:31.001Z,86.3
2018-06-14T18:11:30.928Z,86.3
2018-06-14T18:12:31.414Z,86.6
2018-06-14T18:13:31.297Z,86.8
2018-06-14T18:14:31.179Z,86.9
2018-06-14T18:15:31.100Z,87
2018-06-14T18:16:30.981Z,86.6
2018-06-14T18:17:30.892Z,86.5
2018-06-14T18:18:30.795Z,87
2018-06-14T18:19:30.668Z,87.2
2018-06-14T18:20:30.557Z,87
2018-06-14T18:21:30.430Z,87.6
2018-06-14T18:22:31.270Z,87.4
2018-06-14T18:23:31.179Z,87
2018-06-14T18:24:31.062Z,88
2018-06-14T18:25:30.950Z,86.9
2018-06-14T18:26:30.857Z,86.8
2018-06-14T18:27:30.738Z,86.5
2018-06-14T18:28:30.639Z,86.8
2018-06-14T18:29:30.519Z,86.1
2018-06-14T18:30:30.433Z,86.5
2018-06-14T18:31:30.348Z,86.5
2018-06-14T18:32:30.770Z,86.5
2018-06-14T18:33:30.808Z,86.9
2018-06-14T18:34:30.697Z,86.5
2018-06-14T18:35:30.616Z,86.1
2018-06-14T18:36:30.517Z,85.9
2018-06-14T18:37:30.411Z,86
2018-06-14T18:38:30.307Z,86
2018-06-14T18:39:30.209Z,86.1
2018-06-14T18:40:30.117Z,86
2018-06-14T18:41:30.012Z,86
2018-06-14T18:42:30.324Z,86.4
2018-06-14T18:43:30.227Z,86.4
2018-06-14T18:44:30.417Z,86.6
2018-06-14T18:45:30.393Z,87.4
2018-06-14T18:46:30.311Z,87.8
2018-06-14T18:47:30.211Z,88.4
2018-06-14T18:48:30.148Z,88.2
2018-06-14T18:49:30.068Z,88.6
2018-06-14T18:50:29.953Z,88.6
2018-06-14T18:51:29.837Z,88.6
2018-06-14T18:52:30.138Z,88.6
2018-06-14T18:53:30.065Z,88.2
2018-06-14T18:54:29.948Z,88.5
2018-06-14T18:55:29.821Z,88.4
2018-06-14T18:56:29.709Z,88.1
2018-06-14T18:57:29.590Z,89.8
2018-06-14T18:58:29.505Z,90
2018-06-14T18:59:29.383Z,90
2018-06-14T19:00:29.264Z,90
2018-06-14T19:01:29.259Z,90
2018-06-14T19:02:29.572Z,88.9
2018-06-14T19:03:29.508Z,89.5
2018-06-14T19:04:29.385Z,89.7
2018-06-14T19:05:29.277Z,90.1
2018-06-14T19:06:29.164Z,90.4
2018-06-14T19:07:29.119Z,90.2
2018-06-14T19:08:29.019Z,90.5
2018-06-14T19:09:28.892Z,90.6
2018-06-14T19:10:28.751Z,90.7
2018-06-14T19:11:28.629Z,90.6
2018-06-14T19:12:31.089Z,90.7
2018-06-14T19:13:31.006Z,90.9
2018-06-14T19:14:30.889Z,91.1
2018-06-14T19:15:30.769Z,91.1
2018-06-14T19:16:30.656Z,91.2
2018-06-14T19:17:31.088Z,91.2
2018-06-14T19:18:31.283Z,91.7
2018-06-14T19:19:31.150Z,92.1
2018-06-14T19:20:31.058Z,91.8
2018-06-14T19:21:30.953Z,91.9
2018-06-14T19:22:31.285Z,92
2018-06-14T19:23:31.218Z,92.2
2018-06-14T19:24:31.125Z,92.2
2018-06-14T19:25:31.237Z,91.9
2018-06-14T19:26:34.604Z,92.1
2018-06-14T19:27:34.488Z,92.3
2018-06-14T19:28:34.373Z,92.5
2018-06-14T19:29:34.293Z,92.7
2018-06-14T19:30:34.181Z,92.5
2018-06-14T19:31:34.065Z,92.5
2018-06-14T19:32:34.372Z,92.7
2018-06-14T19:33:34.342Z,92.8
2018-06-14T19:34:34.228Z,93
2018-06-14T19:35:34.129Z,93.4
2018-06-14T19:36:34.055Z,93.1
2018-06-14T19:37:34.165Z,93.2
2018-06-14T19:38:34.038Z,93.2
2018-06-14T19:39:33.922Z,93.3
2018-06-14T19:40:33.821Z,94.1
2018-06-14T19:41:33.700Z,93.9
2018-06-14T19:42:34.022Z,93.8
2018-06-14T19:43:33.906Z,94.4
2018-06-14T19:44:33.778Z,94.5
2018-06-14T19:45:33.664Z,94.9
2018-06-14T19:46:33.556Z,95.1
2018-06-14T19:47:33.414Z,95
2018-06-14T19:48:33.294Z,95
2018-06-14T19:49:33.176Z,95.2
2018-06-14T19:50:33.077Z,95.1
2018-06-14T19:51:32.956Z,95.2
2018-06-14T19:52:33.234Z,95.4
2018-06-14T19:53:33.104Z,95.4
2018-06-14T19:54:33.004Z,95.4
2018-06-14T19:55:32.894Z,95.5
2018-06-14T19:56:32.809Z,95.8
2018-06-14T19:57:32.706Z,96.2
2018-06-14T19:58:32.602Z,95.6
2018-06-14T19:59:32.550Z,95.6
2018-06-14T20:00:32.443Z,95.6
2018-06-14T20:01:32.344Z,95.8
2018-06-14T20:02:32.649Z,96.2
2018-06-14T20:03:32.537Z,96.5
2018-06-14T20:04:32.423Z,96.7
2018-06-14T20:05:32.315Z,96.1
2018-06-14T20:06:32.197Z,96.2
2018-06-14T20:07:32.089Z,95.9
2018-06-14T20:08:31.988Z,96.2
2018-06-14T20:09:31.894Z,96.2
2018-06-14T20:10:31.820Z,96.4
2018-06-14T20:11:31.703Z,96.8
2018-06-14T20:12:32.071Z,96.5
2018-06-14T20:13:31.976Z,96.6
2018-06-14T20:14:31.873Z,96.4
2018-06-14T20:15:31.751Z,96.5
2018-06-14T20:16:31.702Z,96.5
2018-06-14T20:17:31.560Z,96.4
2018-06-14T20:18:31.439Z,96.7
2018-06-14T20:19:31.313Z,96.8
2018-06-14T20:20:31.410Z,96.8
2018-06-14T20:21:31.387Z,96.6
2018-06-14T20:22:31.691Z,96.7
2018-06-14T20:23:31.581Z,97
2018-06-14T20:24:31.468Z,96.9
2018-06-14T20:25:31.338Z,97
2018-06-14T20:26:31.458Z,96.9
2018-06-14T20:27:31.473Z,96.8
2018-06-14T20:28:31.359Z,96.7
2018-06-14T20:29:31.252Z,96.7
2018-06-14T20:30:31.147Z,96.7
2018-06-14T20:31:31.046Z,96.8
2018-06-14T20:32:33.561Z,96.7
2018-06-14T20:33:33.487Z,97
2018-06-14T20:34:33.384Z,97.1
2018-06-14T20:35:33.279Z,97.2
2018-06-14T20:36:33.215Z,97.7
2018-06-14T20:37:33.112Z,97.5
2018-06-14T20:38:32.999Z,97.3
2018-06-14T20:39:32.899Z,97.4
2018-06-14T20:40:32.785Z,97.4
2018-06-14T20:41:32.690Z,97.4
2018-06-14T20:42:33.669Z,97.8
2018-06-14T20:43:33.585Z,97.5
2018-06-14T20:44:33.454Z,97.7
2018-06-14T20:45:33.337Z,97.5
2018-06-14T20:46:33.216Z,97.8
2018-06-14T20:47:33.106Z,98
2018-06-14T20:48:32.977Z,98.1
2018-06-14T20:49:32.861Z,98.3
2018-06-14T20:50:32.743Z,98.1
2018-06-14T20:51:32.665Z,98.4
2018-06-14T20:52:33.026Z,98.1
2018-06-14T20:53:32.923Z,98.4
2018-06-14T20:54:32.823Z,98.1
2018-06-14T20:55:32.716Z,98.1
2018-06-14T20:56:32.610Z,98.2
2018-06-14T20:57:32.692Z,98.3
2018-06-14T20:58:32.803Z,98.8
2018-06-14T20:59:32.695Z,98.6
2018-06-14T21:00:32.605Z,98.6
2018-06-14T21:01:32.477Z,98.6
2018-06-14T21:02:32.790Z,98.5
2018-06-14T21:03:32.702Z,98.5
2018-06-14T21:04:32.856Z,98.7
2018-06-14T21:05:32.731Z,99.1
2018-06-14T21:06:32.616Z,99.3
2018-06-14T21:07:32.498Z,99.5
2018-06-14T21:08:32.403Z,99.5
2018-06-14T21:09:32.277Z,99.2
2018-06-14T21:10:32.164Z,99.3
2018-06-14T21:11:32.043Z,99.1
2018-06-14T21:12:32.360Z,99.3
2018-06-14T21:13:32.248Z,99.2
2018-06-14T21:14:32.152Z,99.4
2018-06-14T21:15:32.235Z,99.4
2018-06-14T21:16:32.116Z,99.4
2018-06-14T21:17:31.996Z,99.8
2018-06-14T21:18:31.861Z,99.6
2018-06-14T21:19:31.750Z,99.7
2018-06-14T21:20:31.657Z,99.9
2018-06-14T21:21:31.584Z,99.6
2018-06-14T21:22:32.098Z,99.7
2018-06-14T21:23:31.974Z,99.8
2018-06-14T21:24:31.909Z,99.7
2018-06-14T21:25:31.781Z,99.9
2018-06-14T21:26:31.665Z,99.9
2018-06-14T21:27:31.539Z,99.9
2018-06-14T21:28:31.411Z,99.9
2018-06-14T21:29:31.324Z,99.9
2018-06-14T21:30:31.203Z,99.9
2018-06-14T21:31:31.075Z,99.9
2018-06-14T21:32:31.375Z,99.9
2018-06-14T21:33:31.247Z,99.9
2018-06-14T21:34:31.132Z,99.9
2018-06-14T21:35:31.021Z,99.9
2018-06-14T21:36:30.901Z,99.9
2018-06-14T21:37:30.749Z,99.9
2018-06-14T21:38:30.631Z,99.9
2018-06-14T21:39:30.563Z,99.9
2018-06-14T21:40:30.435Z,99.9
2018-06-14T21:41:30.305Z,99.9
2018-06-14T21:42:30.615Z,99.9
2018-06-14T21:43:30.506Z,99.9
2018-06-14T21:44:30.407Z,99.9
2018-06-14T21:45:30.274Z,99.9
2018-06-14T21:46:30.411Z,99.9
2018-06-14T21:47:30.296Z,99.9
2018-06-14T21:48:30.154Z,99.9
2018-06-14T21:49:30.065Z,99.9
2018-06-14T21:50:29.946Z,99.9
2018-06-14T21:51:29.838Z,99.9
2018-06-14T21:52:30.130Z,99.9
2018-06-14T21:53:30.021Z,99.9
2018-06-14T21:54:29.998Z,99.9
2018-06-14T21:55:29.897Z,99.9
2018-06-14T21:56:29.779Z,99.9
2018-06-14T21:57:29.649Z,99.9
2018-06-14T21:58:29.546Z,99.9
2018-06-14T21:59:29.446Z,99.9
2018-06-14T22:00:29.332Z,99.9
2018-06-14T22:01:29.197Z,99.9
2018-06-14T22:02:29.519Z,99.9
2018-06-14T22:03:29.440Z,99.9
2018-06-14T22:04:29.320Z,99.9
2018-06-14T22:05:29.236Z,99.9
2018-06-14T22:06:31.401Z,99.9
2018-06-14T22:07:31.296Z,99.9
2018-06-14T22:08:31.181Z,99.9
2018-06-14T22:09:31.045Z,99.9
2018-06-14T22:10:30.941Z,99.9
2018-06-14T22:11:30.887Z,99.9
2018-06-14T22:12:31.181Z,99.9
2018-06-14T22:13:31.078Z,99.9
2018-06-14T22:14:30.950Z,99.9
2018-06-14T22:15:30.834Z,99.9
2018-06-14T22:16:30.727Z,99.9
2018-06-14T22:17:30.627Z,99.9
2018-06-14T22:18:30.513Z,99.9
2018-06-14T22:19:30.664Z,99.9
2018-06-14T22:20:30.525Z,99.9
2018-06-14T22:21:30.422Z,99.9
2018-06-14T22:22:30.679Z,99.9
2018-06-14T22:23:30.585Z,99.9
2018-06-14T22:24:30.473Z,99.9
2018-06-14T22:25:30.360Z,99.9
2018-06-14T22:26:30.264Z,99.9
2018-06-14T22:27:31.169Z,99.9
2018-06-14T22:28:31.045Z,99.9
2018-06-14T22:29:30.924Z,99.9
2018-06-14T22:30:30.819Z,99.9
2018-06-14T22:31:30.751Z,99.9
2018-06-14T22:32:31.032Z,99.9
2018-06-14T22:33:30.894Z,99.9
2018-06-14T22:34:30.754Z,99.9
2018-06-14T22:35:30.632Z,99.9
2018-06-14T22:36:30.540Z,99.9
2018-06-14T22:37:30.438Z,99.9
2018-06-14T22:38:30.708Z,99.9
2018-06-14T22:39:30.590Z,99.9
2018-06-14T22:40:30.453Z,99.9
2018-06-14T22:41:33.060Z,99.9
2018-06-14T22:42:36.099Z,99.9
2018-06-14T22:43:36.218Z,99.9
2018-06-14T22:44:36.307Z,99.9
2018-06-14T22:45:36.619Z,99.9
2018-06-14T22:46:36.541Z,99.9
2018-06-14T22:47:36.409Z,99.9
2018-06-14T22:48:36.298Z,99.9
2018-06-14T22:49:36.173Z,99.9
2018-06-14T22:50:36.032Z,99.9
2018-06-14T22:51:35.910Z,99.9
2018-06-14T22:52:36.224Z,99.9
2018-06-14T22:53:36.093Z,99.9
2018-06-14T22:54:35.981Z,99.9
2018-06-14T22:55:35.883Z,99.9
2018-06-14T22:56:35.753Z,99.9
2018-06-14T22:57:35.671Z,99.9
2018-06-14T22:58:35.541Z,99.9
2018-06-14T22:59:35.424Z,99.9
2018-06-14T23:00:35.299Z,99.9
2018-06-14T23:01:35.155Z,99.9
2018-06-14T23:02:35.448Z,99.9
2018-06-14T23:03:35.350Z,99.9
2018-06-14T23:04:35.211Z,99.9
2018-06-14T23:05:35.088Z,99.9
2018-06-14T23:06:34.985Z,99.9
2018-06-14T23:07:34.858Z,99.9
2018-06-14T23:08:34.737Z,99.9
2018-06-14T23:09:34.650Z,99.9
2018-06-14T23:10:34.759Z,99.9
2018-06-14T23:11:34.646Z,99.9
2018-06-14T23:12:34.957Z,99.9
2018-06-14T23:13:34.850Z,99.9
2018-06-14T23:14:34.757Z,99.9
2018-06-14T23:15:34.639Z,99.9
2018-06-14T23:16:34.530Z,99.9
2018-06-14T23:17:34.385Z,99.9
2018-06-14T23:18:34.464Z,99.9
2018-06-14T23:19:34.342Z,99.9
2018-06-14T23:20:34.257Z,99.9
2018-06-14T23:21:34.146Z,99.9
2018-06-14T23:22:36.829Z,99.9
2018-06-14T23:23:36.742Z,99.9
2018-06-14T23:24:36.630Z,99.9
2018-06-14T23:25:36.531Z,99.9
2018-06-14T23:26:36.406Z,99.9
2018-06-14T23:27:36.299Z,99.9
2018-06-14T23:28:36.175Z,99.9
2018-06-14T23:29:36.070Z,99.9
2018-06-14T23:30:35.967Z,99.9
2018-06-14T23:31:35.842Z,99.9
2018-06-14T23:32:36.134Z,99.9
2018-06-14T23:33:35.989Z,99.9
2018-06-14T23:34:35.859Z,99.9
2018-06-14T23:35:35.729Z,99.9
2018-06-14T23:36:35.630Z,99.9
2018-06-14T23:37:35.518Z,99.9
2018-06-14T23:38:35.387Z,99.9
2018-06-14T23:39:35.244Z,99.9
2018-06-14T23:40:35.122Z,99.9
2018-06-14T23:41:35.003Z,99.9
2018-06-14T23:42:38.207Z,99.9
2018-06-14T23:43:38.086Z,99.9
2018-06-14T23:44:37.966Z,99.9
2018-06-14T23:45:38.067Z,99.9
2018-06-14T23:46:37.968Z,99.9
2018-06-14T23:47:37.821Z,99.9
2018-06-14T23:48:37.693Z,99.9
2018-06-14T23:49:37.572Z,99.9
2018-06-14T23:50:37.521Z,99.9
2018-06-14T23:51:43.350Z,99.9
2018-06-14T23:52:43.656Z,99.9
2018-06-14T23:53:43.558Z,99.9
2018-06-14T23:54:43.430Z,99.9